createdAt,value
2019-04-04T00:01:31.856Z,83.10
2019-04-04T00:03:59.659Z,84.90
2019-04-04T00:06:27.100Z,83.30
2019-04-04T00:09:06.243Z,84.40
2019-04-04T00:11:33.126Z,83.90
2019-04-04T00:14:01.944Z,83.70
2019-04-04T00:16:29.795Z,84.70
2019-04-04T00:18:58.435Z,84.20
2019-04-04T00:21:29.716Z,83.00
2019-04-04T00:23:56.939Z,82.70
2019-04-04T00:26:23.848Z,82.10
2019-04-04T00:28:52.964Z,83.30
2019-04-04T00:31:20.306Z,82.20
2019-04-04T00:33:47.053Z,83.90
2019-04-04T00:36:13.863Z,82.00
2019-04-04T00:38:40.734Z,82.20
2019-04-04T00:41:08.555Z,81.90
2019-04-04T00:43:36.399Z,81.70
2019-04-04T00:46:05.906Z,82.80
2019-04-04T00:48:34.283Z,82.60
2019-04-04T00:51:03.595Z,82.50
2019-04-04T00:53:30.479Z,81.60
2019-04-04T00:55:57.322Z,82.40
2019-04-04T00:58:27.164Z,81.70
2019-04-04T01:00:54.913Z,82.50
2019-04-04T01:03:22.510Z,83.40
2019-04-04T01:05:55.060Z,83.20
2019-04-04T01:08:23.146Z,83.00
2019-04-04T01:10:50.244Z,82.30
2019-04-04T01:13:17.258Z,83.00
2019-04-04T01:15:44.008Z,83.00
2019-04-04T01:18:15.227Z,83.70
2019-04-04T01:20:42.093Z,82.40
2019-04-04T01:23:09.244Z,81.90
2019-04-04T01:25:37.127Z,84.90
2019-04-04T01:28:12.038Z,84.20
2019-04-04T01:30:39.887Z,86.70
2019-04-04T01:33:12.793Z,87.10
2019-04-04T01:35:40.980Z,86.70
2019-04-04T01:38:16.802Z,87.20
2019-04-04T01:40:51.534Z,86.50
2019-04-04T01:43:18.643Z,86.00
2019-04-04T01:45:54.939Z,86.80
2019-04-04T01:48:22.716Z,87.10
2019-04-04T01:50:54.256Z,87.90
2019-04-04T01:53:21.316Z,87.80
2019-04-04T01:55:50.179Z,88.70
2019-04-04T01:58:17.968Z,86.10
2019-04-04T02:00:45.923Z,86.00
2019-04-04T02:03:22.503Z,85.10
2019-04-04T02:05:48.016Z,86.20
2019-04-04T02:08:14.907Z,86.40
2019-04-04T02:10:41.701Z,87.10
2019-04-04T02:13:10.469Z,86.80
2019-04-04T02:15:39.479Z,86.70
2019-04-04T02:18:06.377Z,86.80
2019-04-04T02:20:33.176Z,87.30
2019-04-04T02:23:01.996Z,87.20
2019-04-04T02:25:28.954Z,86.70
2019-04-04T02:27:56.242Z,87.90
2019-04-04T02:30:23.146Z,87.40
2019-04-04T02:32:59.480Z,87.20
2019-04-04T02:35:25.124Z,86.00
2019-04-04T02:37:58.012Z,86.30
2019-04-04T02:40:25.022Z,86.00
2019-04-04T02:42:58.070Z,87.30
2019-04-04T02:45:24.865Z,85.80
2019-04-04T02:47:52.806Z,86.50
2019-04-04T02:50:25.697Z,87.40
2019-04-04T02:52:52.526Z,88.00
2019-04-04T02:55:19.629Z,87.80
2019-04-04T02:57:46.422Z,88.10
2019-04-04T03:00:14.328Z,87.40
2019-04-04T03:02:52.044Z,87.40
2019-04-04T03:05:24.742Z,86.80
2019-04-04T03:07:52.576Z,87.70
2019-04-04T03:10:21.485Z,87.40
2019-04-04T03:12:48.296Z,88.30
2019-04-04T03:15:21.154Z,89.00
2019-04-04T03:18:03.890Z,88.90
2019-04-04T03:20:39.799Z,88.20
2019-04-04T03:23:07.605Z,88.60
2019-04-04T03:25:34.554Z,88.90
2019-04-04T03:28:02.331Z,88.30
2019-04-04T03:30:30.160Z,88.20
2019-04-04T03:32:57.030Z,89.10
2019-04-04T03:35:28.123Z,88.30
2019-04-04T03:37:59.760Z,89.80
2019-04-04T03:40:29.289Z,90.00
2019-04-04T03:43:02.780Z,89.60
2019-04-04T03:45:33.618Z,89.10
2019-04-04T03:48:00.404Z,89.30
2019-04-04T03:50:30.144Z,89.20
2019-04-04T03:52:56.943Z,89.10
2019-04-04T03:55:27.450Z,88.90
2019-04-04T03:57:59.703Z,88.90
2019-04-04T04:00:32.331Z,87.60
2019-04-04T04:02:59.303Z,88.60
2019-04-04T04:05:26.357Z,89.30
2019-04-04T04:07:54.229Z,88.80
2019-04-04T04:10:24.129Z,89.30
2019-04-04T04:13:00.075Z,89.80
2019-04-04T04:15:30.273Z,90.00
2019-04-04T04:17:56.812Z,89.10
2019-04-04T04:20:23.959Z,89.00
2019-04-04T04:23:02.692Z,88.90
2019-04-04T04:25:35.233Z,89.20
2019-04-04T04:28:03.180Z,90.20
2019-04-04T04:30:29.993Z,90.10
2019-04-04T04:32:57.375Z,89.50
2019-04-04T04:35:24.617Z,88.40
2019-04-04T04:37:53.328Z,88.30
2019-04-04T04:40:21.168Z,89.90
2019-04-04T04:42:48.128Z,90.10
2019-04-04T04:45:15.973Z,90.20
2019-04-04T04:47:42.926Z,90.10
2019-04-04T04:50:10.042Z,90.10
2019-04-04T04:52:37.813Z,90.10
2019-04-04T04:55:06.641Z,89.70
2019-04-04T04:57:37.114Z,90.20
2019-04-04T05:00:04.832Z,89.10
2019-04-04T05:02:31.656Z,89.70
2019-04-04T05:05:13.552Z,89.50
2019-04-04T05:07:47.104Z,89.60
2019-04-04T05:10:15.936Z,90.50
2019-04-04T05:12:44.148Z,89.90
2019-04-04T05:15:12.078Z,90.20
2019-04-04T05:17:42.094Z,90.10
2019-04-04T05:20:09.148Z,90.20
2019-04-04T05:22:39.664Z,90.50
2019-04-04T05:25:12.781Z,90.30
2019-04-04T05:27:43.976Z,90.30
2019-04-04T05:30:20.234Z,90.60
2019-04-04T05:32:56.590Z,90.20
2019-04-04T05:35:37.673Z,90.10
2019-04-04T05:38:16.629Z,88.70
2019-04-04T05:40:46.149Z,90.00
2019-04-04T05:43:18.124Z,89.50
2019-04-04T05:45:46.050Z,90.50
2019-04-04T05:48:18.863Z,89.80
2019-04-04T05:50:45.769Z,90.10
2019-04-04T05:53:12.649Z,90.60
2019-04-04T05:55:42.522Z,90.40
2019-04-04T05:58:11.332Z,90.50
2019-04-04T06:00:41.032Z,90.20
2019-04-04T06:03:07.899Z,90.70
2019-04-04T06:05:34.748Z,90.60
2019-04-04T06:08:01.734Z,90.80
2019-04-04T06:10:31.628Z,90.40
2019-04-04T06:12:58.556Z,91.30
2019-04-04T06:15:32.206Z,91.20
2019-04-04T06:17:59.803Z,91.20
2019-04-04T06:20:27.762Z,91.30
2019-04-04T06:23:04.688Z,90.80
2019-04-04T06:25:37.941Z,91.70
2019-04-04T06:28:05.683Z,91.90
2019-04-04T06:30:42.496Z,92.10
2019-04-04T06:33:07.160Z,91.80
2019-04-04T06:35:34.584Z,91.60
2019-04-04T06:38:02.447Z,92.00
2019-04-04T06:40:32.025Z,91.30
2019-04-04T06:42:59.886Z,91.40
2019-04-04T06:45:35.928Z,91.60
2019-04-04T06:48:08.711Z,91.40
2019-04-04T06:50:44.749Z,91.20
2019-04-04T06:53:15.297Z,91.40
2019-04-04T06:55:42.203Z,91.30
2019-04-04T06:58:09.637Z,91.60
2019-04-04T07:00:42.587Z,91.60
2019-04-04T07:03:14.503Z,91.20
2019-04-04T07:05:44.806Z,91.30
2019-04-04T07:08:14.810Z,91.00
2019-04-04T07:10:57.910Z,91.10
2019-04-04T07:13:27.349Z,90.90
2019-04-04T07:16:06.654Z,90.80
2019-04-04T07:18:29.876Z,90.80
2019-04-04T07:21:00.151Z,90.60
2019-04-04T07:23:33.141Z,90.80
2019-04-04T07:26:01.005Z,90.80
2019-04-04T07:28:31.026Z,90.60
2019-04-04T07:31:01.201Z,90.30
2019-04-04T07:33:29.520Z,89.80
2019-04-04T07:35:57.569Z,90.00
2019-04-04T07:38:26.608Z,89.70
2019-04-04T07:40:56.233Z,90.10
2019-04-04T07:43:23.192Z,89.90
2019-04-04T07:45:50.290Z,90.00
2019-04-04T07:48:20.670Z,88.60
2019-04-04T07:50:47.761Z,88.90
2019-04-04T07:53:15.672Z,89.40
2019-04-04T07:55:43.076Z,87.70
2019-04-04T07:58:19.472Z,88.30
2019-04-04T08:00:46.517Z,89.50
2019-04-04T08:03:13.804Z,87.00
2019-04-04T08:05:46.904Z,88.50
2019-04-04T08:08:14.733Z,88.10
2019-04-04T08:10:47.693Z,87.40
2019-04-04T08:13:18.747Z,87.80
2019-04-04T08:15:46.798Z,88.50
2019-04-04T08:18:15.865Z,89.00
2019-04-04T08:20:42.684Z,87.40
2019-04-04T08:23:11.823Z,85.60
2019-04-04T08:25:44.674Z,86.50
2019-04-04T08:28:19.479Z,86.20
2019-04-04T08:30:47.154Z,83.60
2019-04-04T08:33:17.148Z,85.40
2019-04-04T08:35:43.968Z,84.30
2019-04-04T08:38:10.736Z,84.10
2019-04-04T08:40:37.572Z,84.40
2019-04-04T08:43:04.670Z,84.10
2019-04-04T08:45:31.720Z,84.40
2019-04-04T08:48:00.685Z,83.30
2019-04-04T08:50:29.559Z,84.10
2019-04-04T08:53:00.051Z,83.40
2019-04-04T08:55:29.036Z,83.20
2019-04-04T08:57:56.179Z,84.20
2019-04-04T09:00:23.150Z,83.30
2019-04-04T09:02:56.768Z,83.80
2019-04-04T09:05:29.802Z,83.20
2019-04-04T09:07:59.206Z,83.50
2019-04-04T09:10:26.686Z,82.70
2019-04-04T09:12:53.836Z,82.40
2019-04-04T09:15:31.050Z,83.70
2019-04-04T09:17:57.850Z,81.10
2019-04-04T09:20:24.780Z,82.80
2019-04-04T09:22:52.056Z,82.10
2019-04-04T09:25:21.002Z,81.00
2019-04-04T09:27:47.924Z,79.50
2019-04-04T09:30:14.809Z,82.00
2019-04-04T09:32:41.611Z,78.00
2019-04-04T09:35:10.538Z,80.10
2019-04-04T09:37:37.433Z,78.30
2019-04-04T09:40:13.116Z,78.00
2019-04-04T09:42:39.995Z,81.20
2019-04-04T09:45:09.563Z,77.40
2019-04-04T09:47:37.716Z,75.40
2019-04-04T09:50:17.254Z,73.50
2019-04-04T09:52:45.372Z,76.20
2019-04-04T09:55:16.603Z,73.10
2019-04-04T09:57:46.806Z,73.90
2019-04-04T10:00:22.319Z,73.10
2019-04-04T10:02:51.358Z,71.30
2019-04-04T10:05:18.207Z,71.90
2019-04-04T10:07:55.213Z,71.90
2019-04-04T10:10:29.450Z,71.50
2019-04-04T10:12:57.374Z,72.20
2019-04-04T10:15:37.120Z,69.70
2019-04-04T10:18:21.285Z,70.40
2019-04-04T10:20:49.128Z,70.60
2019-04-04T10:23:23.469Z,66.90
2019-04-04T10:25:53.931Z,68.50
2019-04-04T10:28:26.860Z,69.50
2019-04-04T10:31:00.341Z,67.70
2019-04-04T10:33:42.072Z,69.80
2019-04-04T10:36:08.039Z,66.60
2019-04-04T10:38:34.869Z,68.00
2019-04-04T10:41:04.899Z,67.40
2019-04-04T10:43:32.691Z,67.30
2019-04-04T10:46:06.424Z,64.50
2019-04-04T10:48:34.421Z,66.50
2019-04-04T10:51:10.329Z,62.10
2019-04-04T10:53:41.226Z,65.70
2019-04-04T10:56:09.707Z,63.10
2019-04-04T10:58:36.594Z,65.00
2019-04-04T11:01:10.910Z,67.50
2019-04-04T11:03:46.897Z,59.20
2019-04-04T11:06:13.704Z,61.30
2019-04-04T11:08:42.109Z,60.00
2019-04-04T11:11:09.080Z,60.20
2019-04-04T11:13:36.110Z,60.70
2019-04-04T11:16:04.032Z,59.80
2019-04-04T11:18:32.910Z,58.90
2019-04-04T11:21:04.033Z,61.90
2019-04-04T11:23:31.869Z,59.00
2019-04-04T11:25:58.698Z,58.50
2019-04-04T11:28:25.763Z,57.50
2019-04-04T11:30:52.542Z,57.70
2019-04-04T11:33:19.409Z,56.90
2019-04-04T11:35:52.096Z,56.50
2019-04-04T11:39:03.777Z,58.50
2019-04-04T11:41:30.816Z,57.00
2019-04-04T11:43:57.735Z,58.10
2019-04-04T11:46:35.596Z,56.70
2019-04-04T11:49:07.130Z,55.40
2019-04-04T11:51:33.964Z,53.30
2019-04-04T11:54:00.943Z,56.20
2019-04-04T11:56:27.733Z,54.40
2019-04-04T11:58:56.752Z,53.20
2019-04-04T12:01:24.232Z,55.60
2019-04-04T12:03:56.905Z,53.30
2019-04-04T12:06:30.348Z,53.70
2019-04-04T12:09:00.036Z,53.30
2019-04-04T12:11:27.105Z,53.50
2019-04-04T12:13:54.006Z,54.60
2019-04-04T12:16:21.929Z,54.30
2019-04-04T12:18:54.545Z,53.70
2019-04-04T12:21:24.360Z,52.60
2019-04-04T12:23:59.163Z,53.00
2019-04-04T12:26:26.026Z,54.70
2019-04-04T12:29:00.758Z,50.30
2019-04-04T12:31:29.735Z,54.10
2019-04-04T12:34:11.968Z,52.20
2019-04-04T12:36:44.568Z,51.00
2019-04-04T12:39:12.684Z,52.80
2019-04-04T12:41:39.628Z,51.80
2019-04-04T12:44:09.608Z,49.20
2019-04-04T12:46:37.600Z,48.80
2019-04-04T12:49:04.484Z,49.00
2019-04-04T12:51:32.356Z,51.20
2019-04-04T12:53:59.715Z,50.00
2019-04-04T12:56:35.795Z,49.90
2019-04-04T12:59:02.639Z,48.20
2019-04-04T13:01:29.735Z,49.80
2019-04-04T13:03:56.738Z,47.20
2019-04-04T13:06:30.616Z,47.30
2019-04-04T13:09:01.930Z,47.40
2019-04-04T13:11:29.816Z,47.20
2019-04-04T13:14:04.734Z,48.80
2019-04-04T13:16:32.128Z,46.70
2019-04-04T13:19:00.244Z,48.70
2019-04-04T13:21:27.245Z,47.90
2019-04-04T13:24:00.518Z,47.60
2019-04-04T13:26:30.310Z,47.40
2019-04-04T13:28:59.102Z,49.20
2019-04-04T13:31:26.164Z,48.50
2019-04-04T13:33:54.044Z,49.40
2019-04-04T13:36:22.236Z,47.20
2019-04-04T13:38:49.398Z,47.10
2019-04-04T13:41:22.536Z,48.40
2019-04-04T13:43:53.712Z,50.90
2019-04-04T13:46:24.529Z,51.20
2019-04-04T13:48:50.199Z,49.30
2019-04-04T13:51:20.617Z,47.80
2019-04-04T13:53:54.175Z,46.70
2019-04-04T13:56:32.325Z,45.00
2019-04-04T13:59:02.454Z,47.80
2019-04-04T14:01:29.101Z,48.80
2019-04-04T14:03:56.430Z,47.70
2019-04-04T14:06:24.460Z,45.90
2019-04-04T14:08:57.146Z,48.10
2019-04-04T14:11:24.353Z,46.30
2019-04-04T14:13:58.895Z,45.90
2019-04-04T14:16:34.258Z,44.90
2019-04-04T14:19:01.254Z,44.70
2019-04-04T14:21:28.059Z,45.00
2019-04-04T14:23:56.856Z,45.80
2019-04-04T14:26:23.745Z,45.00
2019-04-04T14:28:51.565Z,46.00
2019-04-04T14:31:18.369Z,46.10
2019-04-04T14:33:45.329Z,45.70
2019-04-04T14:36:13.172Z,47.60
2019-04-04T14:38:40.095Z,46.10
2019-04-04T14:41:11.416Z,47.90
2019-04-04T14:43:39.485Z,46.30
2019-04-04T14:46:06.527Z,46.50
2019-04-04T14:48:35.747Z,46.10
2019-04-04T14:51:05.615Z,47.60
2019-04-04T14:53:32.650Z,48.60
2019-04-04T14:55:59.520Z,51.30
2019-04-04T14:58:30.597Z,52.20
2019-04-04T15:00:57.228Z,53.30
2019-04-04T15:03:29.851Z,53.20
2019-04-04T15:05:58.899Z,53.60
2019-04-04T15:08:31.896Z,53.80
2019-04-04T15:10:59.877Z,54.60
2019-04-04T15:13:26.775Z,54.70
2019-04-04T15:16:28.591Z,54.80
2019-04-04T15:19:00.137Z,54.70
2019-04-04T15:21:34.551Z,55.40
2019-04-04T15:24:01.364Z,56.40
2019-04-04T15:26:34.071Z,56.40
2019-04-04T15:29:03.004Z,55.70
2019-04-04T15:31:29.856Z,55.70
2019-04-04T15:34:00.686Z,56.60
2019-04-04T15:36:29.656Z,56.40
2019-04-04T15:38:56.548Z,56.50
2019-04-04T15:41:35.889Z,57.00
2019-04-04T15:43:52.717Z,56.80
2019-04-04T15:46:19.527Z,57.40
2019-04-04T15:48:46.459Z,57.60
2019-04-04T15:51:13.345Z,57.40
2019-04-04T15:53:41.534Z,57.70
2019-04-04T15:56:14.726Z,57.80
2019-04-04T15:58:44.350Z,57.80
2019-04-04T16:01:18.516Z,58.90
2019-04-04T16:03:57.432Z,58.00
2019-04-04T16:06:24.371Z,57.80
2019-04-04T16:08:51.458Z,58.00
2019-04-04T16:11:24.442Z,58.30
2019-04-04T16:13:57.551Z,58.00
2019-04-04T16:16:33.269Z,58.90
2019-04-04T16:19:16.652Z,59.00
2019-04-04T16:21:49.754Z,59.90
2019-04-04T16:24:18.982Z,59.10
2019-04-04T16:26:45.905Z,59.00
2019-04-04T16:29:13.858Z,59.20
2019-04-04T16:31:42.792Z,59.50
2019-04-04T16:34:10.008Z,59.80
2019-04-04T16:36:44.541Z,60.30
2019-04-04T16:39:11.790Z,60.40
2019-04-04T16:41:38.660Z,61.50
2019-04-04T16:44:15.277Z,60.20
2019-04-04T16:46:52.025Z,61.40
2019-04-04T16:49:20.867Z,61.50
2019-04-04T16:51:49.105Z,61.80
2019-04-04T16:54:24.396Z,62.20
2019-04-04T16:56:52.347Z,62.40
2019-04-04T16:59:22.288Z,62.60
2019-04-04T17:01:49.583Z,62.50
2019-04-04T17:04:22.688Z,63.00
2019-04-04T17:06:56.407Z,62.80
2019-04-04T17:09:23.438Z,62.60
2019-04-04T17:11:50.768Z,62.90
2019-04-04T17:14:18.616Z,62.40
2019-04-04T17:16:45.479Z,62.80
2019-04-04T17:19:14.344Z,63.00
2019-04-04T17:21:43.393Z,62.10
2019-04-04T17:24:10.776Z,61.70
2019-04-04T17:26:41.830Z,62.00
2019-04-04T17:29:15.177Z,62.40
2019-04-04T17:31:43.342Z,61.90
2019-04-04T17:34:11.221Z,61.40
2019-04-04T17:36:39.527Z,61.90
2019-04-04T17:39:14.095Z,61.80
2019-04-04T17:41:45.628Z,61.30
2019-04-04T17:44:13.574Z,61.50
2019-04-04T17:46:41.544Z,61.70
2019-04-04T17:49:16.972Z,61.00
2019-04-04T17:51:44.907Z,62.80
2019-04-04T17:54:14.322Z,62.80
2019-04-04T17:56:45.478Z,61.90
2019-04-04T17:59:12.500Z,62.30
2019-04-04T18:01:39.709Z,62.00
2019-04-04T18:04:06.715Z,62.30
2019-04-04T18:06:42.417Z,62.70
2019-04-04T18:09:15.196Z,62.20
2019-04-04T18:11:49.867Z,62.40
2019-04-04T18:14:16.687Z,62.40
2019-04-04T18:16:43.645Z,61.60
2019-04-04T18:19:13.709Z,62.20
2019-04-04T18:21:42.916Z,61.80
2019-04-04T18:24:09.813Z,61.50
2019-04-04T18:26:36.864Z,62.20
2019-04-04T18:29:07.834Z,61.80
2019-04-04T18:31:34.700Z,61.80
2019-04-04T18:34:02.056Z,61.80
2019-04-04T18:36:30.337Z,61.80
2019-04-04T18:38:57.200Z,62.40
2019-04-04T18:41:28.120Z,61.70
2019-04-04T18:43:56.240Z,61.80
2019-04-04T18:46:23.097Z,62.30
2019-04-04T18:48:50.971Z,62.00
2019-04-04T18:51:18.198Z,62.00
2019-04-04T18:53:44.967Z,62.40
2019-04-04T18:56:12.763Z,61.90
2019-04-04T18:58:43.312Z,62.30
2019-04-04T19:01:10.541Z,62.50
2019-04-04T19:03:37.409Z,63.60
2019-04-04T19:06:10.364Z,62.70
2019-04-04T19:08:37.636Z,62.60
2019-04-04T19:11:04.819Z,63.30
2019-04-04T19:13:43.812Z,62.80
2019-04-04T19:16:00.703Z,63.20
2019-04-04T19:18:27.788Z,62.90
2019-04-04T19:20:55.766Z,62.90
2019-04-04T19:23:24.964Z,63.40
2019-04-04T19:25:52.112Z,63.40
2019-04-04T19:28:37.319Z,63.30
2019-04-04T19:31:05.153Z,63.30
2019-04-04T19:33:34.143Z,63.20
2019-04-04T19:36:10.358Z,64.20
2019-04-04T19:38:42.256Z,63.60
2019-04-04T19:41:12.295Z,63.70
2019-04-04T19:43:41.656Z,64.20
2019-04-04T19:46:08.692Z,64.80
2019-04-04T19:48:36.087Z,64.20
2019-04-04T19:51:09.287Z,64.80
2019-04-04T19:53:38.115Z,64.80
2019-04-04T19:56:05.023Z,65.50
2019-04-04T19:58:31.874Z,65.10
2019-04-04T20:01:05.576Z,65.40
2019-04-04T20:03:36.987Z,65.00
2019-04-04T20:06:03.829Z,65.60
2019-04-04T20:08:33.668Z,66.30
2019-04-04T20:11:02.420Z,65.30
2019-04-04T20:13:31.706Z,65.40
2019-04-04T20:16:08.709Z,66.20
2019-04-04T20:18:35.987Z,65.70
2019-04-04T20:21:03.965Z,66.00
2019-04-04T20:23:33.025Z,66.40
2019-04-04T20:26:00.305Z,66.00
2019-04-04T20:28:28.306Z,66.20
2019-04-04T20:30:56.471Z,66.00
2019-04-04T20:33:29.225Z,66.60
2019-04-04T20:35:56.856Z,66.90
2019-04-04T20:38:25.924Z,67.60
2019-04-04T20:40:53.088Z,67.00
2019-04-04T20:43:19.907Z,67.30
2019-04-04T20:45:50.262Z,68.40
2019-04-04T20:48:20.918Z,67.80
2019-04-04T20:50:47.791Z,67.70
2019-04-04T20:53:16.100Z,69.30
2019-04-04T20:55:45.241Z,68.10
2019-04-04T20:58:12.234Z,68.80
2019-04-04T21:00:41.175Z,68.60
2019-04-04T21:03:10.199Z,69.20
2019-04-04T21:05:40.061Z,69.40
2019-04-04T21:08:08.805Z,70.00
2019-04-04T21:10:36.109Z,70.00
2019-04-04T21:13:06.640Z,70.40
2019-04-04T21:15:35.524Z,70.00
2019-04-04T21:18:02.592Z,70.10
2019-04-04T21:20:35.246Z,70.30
2019-04-04T21:23:08.053Z,69.70
2019-04-04T21:25:35.920Z,70.10
2019-04-04T21:28:02.876Z,70.10
2019-04-04T21:30:29.692Z,70.40
2019-04-04T21:32:56.500Z,70.70
2019-04-04T21:35:23.369Z,70.60
2019-04-04T21:37:50.463Z,70.80
2019-04-04T21:40:17.259Z,71.50
2019-04-04T21:42:46.076Z,71.40
2019-04-04T21:45:15.260Z,71.60
2019-04-04T21:47:43.053Z,71.90
2019-04-04T21:50:10.066Z,71.60
2019-04-04T21:52:42.636Z,72.20
2019-04-04T21:55:10.519Z,71.60
2019-04-04T21:57:37.331Z,72.60
2019-04-04T22:00:05.784Z,72.80
2019-04-04T22:02:32.714Z,72.40
2019-04-04T22:05:04.407Z,71.90
2019-04-04T22:07:31.408Z,72.50
2019-04-04T22:10:04.967Z,72.60
2019-04-04T22:12:32.014Z,73.60
2019-04-04T22:14:59.054Z,74.10
2019-04-04T22:17:25.986Z,74.00
2019-04-04T22:19:56.193Z,74.50
2019-04-04T22:22:23.273Z,74.40
2019-04-04T22:24:50.191Z,74.90
2019-04-04T22:27:17.068Z,74.50
2019-04-04T22:29:44.199Z,74.10
2019-04-04T22:32:11.393Z,74.80
2019-04-04T22:34:38.389Z,74.40
2019-04-04T22:37:06.299Z,74.60
2019-04-04T22:39:35.246Z,74.70
2019-04-04T22:42:02.070Z,74.80
2019-04-04T22:44:35.041Z,74.70
2019-04-04T22:46:58.848Z,75.20
2019-04-04T22:49:26.785Z,74.50
2019-04-04T22:51:53.822Z,75.10
2019-04-04T22:54:21.181Z,75.10
2019-04-04T22:56:50.252Z,74.80
2019-04-04T22:59:17.311Z,75.10
2019-04-04T23:01:44.692Z,75.20
2019-04-04T23:04:12.835Z,75.00
2019-04-04T23:06:39.768Z,74.60
2019-04-04T23:09:06.836Z,75.20
2019-04-04T23:11:34.765Z,75.40
2019-04-04T23:14:02.741Z,74.80
2019-04-04T23:16:30.573Z,75.70
2019-04-04T23:19:05.425Z,76.40
2019-04-04T23:21:44.419Z,75.90
2019-04-04T23:24:18.170Z,75.80
2019-04-04T23:26:45.637Z,75.30
2019-04-04T23:29:12.737Z,75.90
2019-04-04T23:31:39.689Z,75.50
2019-04-04T23:34:07.552Z,75.30
2019-04-04T23:36:40.697Z,76.20
2019-04-04T23:39:08.797Z,76.30
2019-04-04T23:41:36.802Z,76.30
2019-04-04T23:44:04.914Z,76.20
2019-04-04T23:46:31.811Z,75.60
2019-04-04T23:48:58.764Z,76.80
2019-04-04T23:51:28.777Z,75.50
2019-04-04T23:53:55.621Z,75.10
2019-04-04T23:56:28.606Z,75.30
2019-04-04T23:58:55.547Z,76.20
